sensor_id;sensor_type;location;lat;lon;timestamp;temperature;humidity
47600;DHT22;33323;52.124;6.018;2023-05-19T00:01:13;7.00;99.90
47600;DHT22;33323;52.124;6.018;2023-05-19T00:03:56;7.00;99.90
47600;DHT22;33323;52.124;6.018;2023-05-19T00:06:26;7.00;99.90
47600;DHT22;33323;52.124;6.018;2023-05-19T00:09:04;6.90;99.90
47600;DHT22;33323;52.124;6.018;2023-05-19T00:11:37;6.90;99.90
47600;DHT22;33323;52.124;6.018;2023-05-19T00:14:06;6.90;99.90
47600;DHT22;33323;52.124;6.018;2023-05-19T00:16:35;6.90;99.90
47600;DHT22;33323;52.124;6.018;2023-05-19T00:19:04;6.70;99.90
47600;DHT22;33323;52.124;6.018;2023-05-19T00:21:32;6.70;99.90
47600;DHT22;33323;52.124;6.018;2023-05-19T00:23:59;6.70;99.90
47600;DHT22;33323;52.124;6.018;2023-05-19T00:26:26;6.60;99.90
47600;DHT22;33323;52.124;6.018;2023-05-19T00:28:58;6.50;99.90
47600;DHT22;33323;52.124;6.018;2023-05-19T00:31:25;6.60;99.90
47600;DHT22;33323;52.124;6.018;2023-05-19T00:33:53;6.60;99.90
47600;DHT22;33323;52.124;6.018;2023-05-19T00:36:21;6.50;99.90
47600;DHT22;33323;52.124;6.018;2023-05-19T00:38:48;6.60;99.90
47600;DHT22;33323;52.124;6.018;2023-05-19T00:41:16;6.40;99.90
47600;DHT22;33323;52.124;6.018;2023-05-19T00:43:43;6.50;99.90
47600;DHT22;33323;52.124;6.018;2023-05-19T00:46:11;6.40;99.90
47600;DHT22;33323;52.124;6.018;2023-05-19T00:48:38;6.30;99.90
47600;DHT22;33323;52.124;6.018;2023-05-19T00:51:05;6.30;99.90
47600;DHT22;33323;52.124;6.018;2023-05-19T00:53:33;6.20;99.90
47600;DHT22;33323;52.124;6.018;2023-05-19T00:56:01;6.20;99.90
47600;DHT22;33323;52.124;6.018;2023-05-19T00:58:29;6.30;99.90
47600;DHT22;33323;52.124;6.018;2023-05-19T01:00:59;6.30;99.90
47600;DHT22;33323;52.124;6.018;2023-05-19T01:03:31;6.40;99.90
47600;DHT22;33323;52.124;6.018;2023-05-19T01:06:03;6.20;99.90
47600;DHT22;33323;52.124;6.018;2023-05-19T01:08:35;6.30;99.90
47600;DHT22;33323;52.124;6.018;2023-05-19T01:11:06;6.30;99.90
47600;DHT22;33323;52.124;6.018;2023-05-19T01:13:35;6.30;99.90
47600;DHT22;33323;52.124;6.018;2023-05-19T01:16:36;6.40;99.90
47600;DHT22;33323;52.124;6.018;2023-05-19T01:31:28;6.40;99.90
47600;DHT22;33323;52.124;6.018;2023-05-19T01:33:56;6.30;99.90
47600;DHT22;33323;52.124;6.018;2023-05-19T01:36:25;6.20;99.90
47600;DHT22;33323;52.124;6.018;2023-05-19T01:38:55;6.20;99.90
47600;DHT22;33323;52.124;6.018;2023-05-19T01:41:24;6.20;99.90
47600;DHT22;33323;52.124;6.018;2023-05-19T01:43:52;6.10;99.90
47600;DHT22;33323;52.124;6.018;2023-05-19T01:46:21;6.00;99.90
47600;DHT22;33323;52.124;6.018;2023-05-19T01:48:49;5.90;99.90
47600;DHT22;33323;52.124;6.018;2023-05-19T01:51:16;5.90;99.90
47600;DHT22;33323;52.124;6.018;2023-05-19T01:53:43;5.90;99.90
47600;DHT22;33323;52.124;6.018;2023-05-19T01:56:10;5.90;99.90
47600;DHT22;33323;52.124;6.018;2023-05-19T01:58:45;5.90;99.90
47600;DHT22;33323;52.124;6.018;2023-05-19T02:01:41;5.90;99.90
47600;DHT22;33323;52.124;6.018;2023-05-19T02:04:44;5.90;99.90
47600;DHT22;33323;52.124;6.018;2023-05-19T02:07:40;5.80;99.90
47600;DHT22;33323;52.124;6.018;2023-05-19T02:10:14;5.80;99.90
47600;DHT22;33323;52.124;6.018;2023-05-19T02:12:45;5.80;99.90
47600;DHT22;33323;52.124;6.018;2023-05-19T02:15:16;5.80;99.90
47600;DHT22;33323;52.124;6.018;2023-05-19T02:17:44;5.70;99.90
47600;DHT22;33323;52.124;6.018;2023-05-19T02:20:14;5.60;99.90
47600;DHT22;33323;52.124;6.018;2023-05-19T02:22:42;5.70;99.90
47600;DHT22;33323;52.124;6.018;2023-05-19T02:25:12;5.60;99.90
47600;DHT22;33323;52.124;6.018;2023-05-19T02:27:39;5.60;99.90
47600;DHT22;33323;52.124;6.018;2023-05-19T02:30:08;5.70;99.90
47600;DHT22;33323;52.124;6.018;2023-05-19T02:32:35;5.60;99.90
47600;DHT22;33323;52.124;6.018;2023-05-19T02:35:03;5.40;99.90
47600;DHT22;33323;52.124;6.018;2023-05-19T02:37:30;5.40;99.90
47600;DHT22;33323;52.124;6.018;2023-05-19T02:39:58;5.40;99.90
47600;DHT22;33323;52.124;6.018;2023-05-19T02:42:25;5.40;99.90
47600;DHT22;33323;52.124;6.018;2023-05-19T02:44:53;5.40;99.90
47600;DHT22;33323;52.124;6.018;2023-05-19T02:47:21;5.40;99.90
47600;DHT22;33323;52.124;6.018;2023-05-19T02:49:48;5.40;99.90
47600;DHT22;33323;52.124;6.018;2023-05-19T02:52:15;5.40;99.90
47600;DHT22;33323;52.124;6.018;2023-05-19T02:54:42;5.40;99.90
47600;DHT22;33323;52.124;6.018;2023-05-19T02:57:09;5.40;99.90
47600;DHT22;33323;52.124;6.018;2023-05-19T02:59:36;5.10;99.90
47600;DHT22;33323;52.124;6.018;2023-05-19T03:02:03;5.20;99.90
47600;DHT22;33323;52.124;6.018;2023-05-19T03:04:31;5.10;99.90
47600;DHT22;33323;52.124;6.018;2023-05-19T03:06:58;5.10;99.90
47600;DHT22;33323;52.124;6.018;2023-05-19T03:09:25;5.10;99.90
47600;DHT22;33323;52.124;6.018;2023-05-19T03:11:52;5.10;99.90
47600;DHT22;33323;52.124;6.018;2023-05-19T03:14:19;5.20;99.90
47600;DHT22;33323;52.124;6.018;2023-05-19T03:16:49;5.10;99.90
47600;DHT22;33323;52.124;6.018;2023-05-19T03:19:17;5.10;99.90
47600;DHT22;33323;52.124;6.018;2023-05-19T03:21:44;5.10;99.90
47600;DHT22;33323;52.124;6.018;2023-05-19T03:24:12;5.10;99.90
47600;DHT22;33323;52.124;6.018;2023-05-19T03:26:39;5.00;99.90
47600;DHT22;33323;52.124;6.018;2023-05-19T03:29:06;4.90;99.90
47600;DHT22;33323;52.124;6.018;2023-05-19T03:31:35;4.90;99.90
47600;DHT22;33323;52.124;6.018;2023-05-19T03:34:03;4.90;99.90
47600;DHT22;33323;52.124;6.018;2023-05-19T03:36:30;4.80;99.90
47600;DHT22;33323;52.124;6.018;2023-05-19T03:38:59;4.80;99.90
47600;DHT22;33323;52.124;6.018;2023-05-19T03:41:26;4.80;99.90
47600;DHT22;33323;52.124;6.018;2023-05-19T03:43:54;4.90;99.90
47600;DHT22;33323;52.124;6.018;2023-05-19T03:46:21;4.90;99.90
47600;DHT22;33323;52.124;6.018;2023-05-19T03:49:00;4.90;99.90
47600;DHT22;33323;52.124;6.018;2023-05-19T03:51:50;4.90;99.90
47600;DHT22;33323;52.124;6.018;2023-05-19T03:54:33;4.90;99.90
47600;DHT22;33323;52.124;6.018;2023-05-19T03:57:00;4.90;99.90
47600;DHT22;33323;52.124;6.018;2023-05-19T03:59:29;4.90;99.90
47600;DHT22;33323;52.124;6.018;2023-05-19T04:01:56;5.00;99.90
47600;DHT22;33323;52.124;6.018;2023-05-19T04:04:25;5.10;99.90
47600;DHT22;33323;52.124;6.018;2023-05-19T04:06:52;5.20;99.90
47600;DHT22;33323;52.124;6.018;2023-05-19T04:09:20;5.30;99.90
47600;DHT22;33323;52.124;6.018;2023-05-19T04:11:47;5.40;99.90
47600;DHT22;33323;52.124;6.018;2023-05-19T04:14:14;5.60;99.90
47600;DHT22;33323;52.124;6.018;2023-05-19T04:16:42;5.80;99.90
47600;DHT22;33323;52.124;6.018;2023-05-19T04:19:09;6.10;99.90
47600;DHT22;33323;52.124;6.018;2023-05-19T04:21:36;6.20;99.90
47600;DHT22;33323;52.124;6.018;2023-05-19T04:24:04;6.40;99.90
47600;DHT22;33323;52.124;6.018;2023-05-19T04:26:32;6.70;99.90
47600;DHT22;33323;52.124;6.018;2023-05-19T04:29:00;6.80;99.90
47600;DHT22;33323;52.124;6.018;2023-05-19T04:31:31;6.90;99.90
47600;DHT22;33323;52.124;6.018;2023-05-19T04:34:01;7.00;99.90
47600;DHT22;33323;52.124;6.018;2023-05-19T04:36:28;7.10;99.90
47600;DHT22;33323;52.124;6.018;2023-05-19T04:38:55;7.40;99.90
47600;DHT22;33323;52.124;6.018;2023-05-19T04:41:29;7.70;99.90
47600;DHT22;33323;52.124;6.018;2023-05-19T04:43:57;8.00;99.90
47600;DHT22;33323;52.124;6.018;2023-05-19T04:46:25;8.20;99.90
47600;DHT22;33323;52.124;6.018;2023-05-19T04:48:54;8.40;99.90
47600;DHT22;33323;52.124;6.018;2023-05-19T04:51:23;8.60;99.90
47600;DHT22;33323;52.124;6.018;2023-05-19T04:53:58;8.80;99.90
47600;DHT22;33323;52.124;6.018;2023-05-19T04:56:26;9.00;99.90
47600;DHT22;33323;52.124;6.018;2023-05-19T04:58:55;9.30;99.90
47600;DHT22;33323;52.124;6.018;2023-05-19T05:01:24;9.70;99.90
47600;DHT22;33323;52.124;6.018;2023-05-19T05:03:54;10.00;99.90
47600;DHT22;33323;52.124;6.018;2023-05-19T05:06:21;10.30;99.90
47600;DHT22;33323;52.124;6.018;2023-05-19T05:08:49;10.30;99.90
47600;DHT22;33323;52.124;6.018;2023-05-19T05:11:17;10.30;99.90
47600;DHT22;33323;52.124;6.018;2023-05-19T05:13:45;10.40;99.90
47600;DHT22;33323;52.124;6.018;2023-05-19T05:16:13;10.70;99.90
47600;DHT22;33323;52.124;6.018;2023-05-19T05:18:41;11.10;99.90
47600;DHT22;33323;52.124;6.018;2023-05-19T05:21:11;11.50;99.90
47600;DHT22;33323;52.124;6.018;2023-05-19T05:23:39;12.00;99.90
47600;DHT22;33323;52.124;6.018;2023-05-19T05:26:09;12.30;99.90
47600;DHT22;33323;52.124;6.018;2023-05-19T05:28:44;12.30;99.90
47600;DHT22;33323;52.124;6.018;2023-05-19T05:31:11;12.30;99.90
47600;DHT22;33323;52.124;6.018;2023-05-19T05:33:39;12.50;99.90
47600;DHT22;33323;52.124;6.018;2023-05-19T05:36:07;12.40;99.90
47600;DHT22;33323;52.124;6.018;2023-05-19T05:38:34;12.20;99.90
47600;DHT22;33323;52.124;6.018;2023-05-19T05:41:01;12.30;99.90
47600;DHT22;33323;52.124;6.018;2023-05-19T05:43:30;12.30;99.90
47600;DHT22;33323;52.124;6.018;2023-05-19T05:45:59;12.50;99.90
47600;DHT22;33323;52.124;6.018;2023-05-19T05:48:27;12.80;99.90
47600;DHT22;33323;52.124;6.018;2023-05-19T05:50:56;13.10;99.90
47600;DHT22;33323;52.124;6.018;2023-05-19T05:53:29;13.20;99.90
47600;DHT22;33323;52.124;6.018;2023-05-19T05:56:00;13.40;99.90
47600;DHT22;33323;52.124;6.018;2023-05-19T05:58:36;13.60;99.90
47600;DHT22;33323;52.124;6.018;2023-05-19T06:01:03;13.20;99.90
47600;DHT22;33323;52.124;6.018;2023-05-19T06:03:31;13.10;99.90
47600;DHT22;33323;52.124;6.018;2023-05-19T06:06:03;13.00;99.90
47600;DHT22;33323;52.124;6.018;2023-05-19T06:08:31;12.90;99.90
47600;DHT22;33323;52.124;6.018;2023-05-19T06:10:58;13.10;99.90
47600;DHT22;33323;52.124;6.018;2023-05-19T06:13:28;13.20;99.90
47600;DHT22;33323;52.124;6.018;2023-05-19T06:15:55;13.20;99.90
47600;DHT22;33323;52.124;6.018;2023-05-19T06:18:30;13.20;99.90
47600;DHT22;33323;52.124;6.018;2023-05-19T06:20:57;13.80;99.90
47600;DHT22;33323;52.124;6.018;2023-05-19T06:23:24;14.30;99.90
47600;DHT22;33323;52.124;6.018;2023-05-19T06:25:52;14.90;99.90
47600;DHT22;33323;52.124;6.018;2023-05-19T06:28:19;15.20;99.90
47600;DHT22;33323;52.124;6.018;2023-05-19T06:30:48;15.30;99.90
47600;DHT22;33323;52.124;6.018;2023-05-19T06:33:41;15.10;99.90
47600;DHT22;33323;52.124;6.018;2023-05-19T06:36:08;14.80;99.90
47600;DHT22;33323;52.124;6.018;2023-05-19T06:38:39;14.40;99.90
47600;DHT22;33323;52.124;6.018;2023-05-19T06:41:07;14.40;99.90
47600;DHT22;33323;52.124;6.018;2023-05-19T06:43:34;14.60;99.90
47600;DHT22;33323;52.124;6.018;2023-05-19T06:46:02;14.60;99.90
47600;DHT22;33323;52.124;6.018;2023-05-19T06:48:32;14.80;99.90
47600;DHT22;33323;52.124;6.018;2023-05-19T06:50:59;14.40;99.90
47600;DHT22;33323;52.124;6.018;2023-05-19T06:53:26;14.40;99.90
47600;DHT22;33323;52.124;6.018;2023-05-19T06:55:54;14.90;99.90
47600;DHT22;33323;52.124;6.018;2023-05-19T06:58:30;15.10;99.90
47600;DHT22;33323;52.124;6.018;2023-05-19T07:00:58;14.90;99.90
47600;DHT22;33323;52.124;6.018;2023-05-19T07:03:30;15.20;99.90
47600;DHT22;33323;52.124;6.018;2023-05-19T07:05:58;15.20;99.90
47600;DHT22;33323;52.124;6.018;2023-05-19T07:08:26;15.60;99.90
47600;DHT22;33323;52.124;6.018;2023-05-19T07:10:53;15.70;99.90
47600;DHT22;33323;52.124;6.018;2023-05-19T07:13:23;15.60;99.90
47600;DHT22;33323;52.124;6.018;2023-05-19T07:15:54;15.60;99.90
47600;DHT22;33323;52.124;6.018;2023-05-19T07:18:26;15.70;99.90
47600;DHT22;33323;52.124;6.018;2023-05-19T07:20:57;15.80;99.90
47600;DHT22;33323;52.124;6.018;2023-05-19T07:23:24;15.70;99.90
47600;DHT22;33323;52.124;6.018;2023-05-19T07:25:55;15.90;99.90
47600;DHT22;33323;52.124;6.018;2023-05-19T07:28:22;16.00;99.90
47600;DHT22;33323;52.124;6.018;2023-05-19T07:30:49;16.00;99.90
47600;DHT22;33323;52.124;6.018;2023-05-19T07:33:17;16.10;99.90
47600;DHT22;33323;52.124;6.018;2023-05-19T07:35:44;16.40;99.90
47600;DHT22;33323;52.124;6.018;2023-05-19T07:38:11;16.50;99.90
47600;DHT22;33323;52.124;6.018;2023-05-19T07:40:39;16.50;99.90
47600;DHT22;33323;52.124;6.018;2023-05-19T07:43:06;16.30;99.90
47600;DHT22;33323;52.124;6.018;2023-05-19T07:45:33;16.60;99.90
47600;DHT22;33323;52.124;6.018;2023-05-19T07:48:00;16.70;99.90
47600;DHT22;33323;52.124;6.018;2023-05-19T07:50:27;17.00;99.90
47600;DHT22;33323;52.124;6.018;2023-05-19T07:52:55;16.60;99.90
47600;DHT22;33323;52.124;6.018;2023-05-19T07:55:22;16.20;99.90
47600;DHT22;33323;52.124;6.018;2023-05-19T07:57:49;16.30;99.90
47600;DHT22;33323;52.124;6.018;2023-05-19T08:00:17;16.30;99.90
47600;DHT22;33323;52.124;6.018;2023-05-19T08:02:44;16.20;99.90
47600;DHT22;33323;52.124;6.018;2023-05-19T08:05:12;16.30;99.90
47600;DHT22;33323;52.124;6.018;2023-05-19T08:07:39;16.60;99.90
47600;DHT22;33323;52.124;6.018;2023-05-19T08:10:06;16.60;99.90
47600;DHT22;33323;52.124;6.018;2023-05-19T08:12:33;16.60;99.90
47600;DHT22;33323;52.124;6.018;2023-05-19T08:15:01;16.80;99.90
47600;DHT22;33323;52.124;6.018;2023-05-19T08:17:28;16.70;99.90
47600;DHT22;33323;52.124;6.018;2023-05-19T08:19:55;16.70;99.90
47600;DHT22;33323;52.124;6.018;2023-05-19T08:22:22;16.70;99.90
47600;DHT22;33323;52.124;6.018;2023-05-19T08:24:49;16.80;99.90
47600;DHT22;33323;52.124;6.018;2023-05-19T08:27:17;17.20;99.90
47600;DHT22;33323;52.124;6.018;2023-05-19T08:29:44;17.30;99.90
47600;DHT22;33323;52.124;6.018;2023-05-19T08:32:11;17.30;99.90
47600;DHT22;33323;52.124;6.018;2023-05-19T08:34:39;17.20;99.90
47600;DHT22;33323;52.124;6.018;2023-05-19T08:37:07;17.50;99.90
47600;DHT22;33323;52.124;6.018;2023-05-19T08:39:34;17.90;99.90
47600;DHT22;33323;52.124;6.018;2023-05-19T08:42:01;17.80;99.90
47600;DHT22;33323;52.124;6.018;2023-05-19T08:44:28;17.60;99.90
47600;DHT22;33323;52.124;6.018;2023-05-19T08:47:00;17.60;99.90
47600;DHT22;33323;52.124;6.018;2023-05-19T08:49:32;17.90;99.90
47600;DHT22;33323;52.124;6.018;2023-05-19T08:52:08;17.90;99.90
47600;DHT22;33323;52.124;6.018;2023-05-19T08:54:45;17.80;99.90
47600;DHT22;33323;52.124;6.018;2023-05-19T08:57:27;18.00;99.90
47600;DHT22;33323;52.124;6.018;2023-05-19T08:59:54;18.30;99.90
47600;DHT22;33323;52.124;6.018;2023-05-19T09:02:22;18.30;99.90
47600;DHT22;33323;52.124;6.018;2023-05-19T09:04:50;18.50;99.90
47600;DHT22;33323;52.124;6.018;2023-05-19T09:07:19;18.20;99.90
47600;DHT22;33323;52.124;6.018;2023-05-19T09:09:46;18.10;99.90
47600;DHT22;33323;52.124;6.018;2023-05-19T09:12:14;18.30;99.90
47600;DHT22;33323;52.124;6.018;2023-05-19T09:14:41;18.30;99.90
47600;DHT22;33323;52.124;6.018;2023-05-19T09:17:09;18.10;99.90
47600;DHT22;33323;52.124;6.018;2023-05-19T09:19:42;18.00;99.90
47600;DHT22;33323;52.124;6.018;2023-05-19T09:22:10;18.20;99.90
47600;DHT22;33323;52.124;6.018;2023-05-19T09:24:37;18.90;99.90
47600;DHT22;33323;52.124;6.018;2023-05-19T09:27:06;18.70;99.90
47600;DHT22;33323;52.124;6.018;2023-05-19T09:29:33;18.20;99.90
47600;DHT22;33323;52.124;6.018;2023-05-19T09:32:00;17.80;99.90
47600;DHT22;33323;52.124;6.018;2023-05-19T09:34:30;17.80;99.90
47600;DHT22;33323;52.124;6.018;2023-05-19T09:36:57;17.90;99.90
47600;DHT22;33323;52.124;6.018;2023-05-19T09:39:25;18.00;99.90
47600;DHT22;33323;52.124;6.018;2023-05-19T09:41:54;18.20;99.90
47600;DHT22;33323;52.124;6.018;2023-05-19T09:44:25;18.40;99.90
47600;DHT22;33323;52.124;6.018;2023-05-19T09:46:56;18.30;99.90
47600;DHT22;33323;52.124;6.018;2023-05-19T09:49:29;18.30;99.90
47600;DHT22;33323;52.124;6.018;2023-05-19T09:52:01;18.00;99.90
47600;DHT22;33323;52.124;6.018;2023-05-19T09:54:29;18.30;99.90
47600;DHT22;33323;52.124;6.018;2023-05-19T09:57:03;18.60;99.90
47600;DHT22;33323;52.124;6.018;2023-05-19T09:59:34;18.70;99.90
47600;DHT22;33323;52.124;6.018;2023-05-19T10:02:04;18.70;99.90
47600;DHT22;33323;52.124;6.018;2023-05-19T10:04:43;18.60;99.90
47600;DHT22;33323;52.124;6.018;2023-05-19T10:07:13;18.70;99.90
47600;DHT22;33323;52.124;6.018;2023-05-19T10:09:41;18.90;99.90
47600;DHT22;33323;52.124;6.018;2023-05-19T10:12:10;18.60;99.90
47600;DHT22;33323;52.124;6.018;2023-05-19T10:14:38;18.50;99.90
47600;DHT22;33323;52.124;6.018;2023-05-19T10:17:06;18.40;99.90
47600;DHT22;33323;52.124;6.018;2023-05-19T10:19:35;18.20;99.90
47600;DHT22;33323;52.124;6.018;2023-05-19T10:22:03;18.20;99.90
47600;DHT22;33323;52.124;6.018;2023-05-19T10:24:30;18.50;99.90
47600;DHT22;33323;52.124;6.018;2023-05-19T10:27:07;18.40;99.90
47600;DHT22;33323;52.124;6.018;2023-05-19T10:29:41;18.30;99.90
47600;DHT22;33323;52.124;6.018;2023-05-19T10:32:17;18.20;99.90
47600;DHT22;33323;52.124;6.018;2023-05-19T10:40:52;18.60;99.90
47600;DHT22;33323;52.124;6.018;2023-05-19T10:43:48;18.90;99.90
47600;DHT22;33323;52.124;6.018;2023-05-19T10:46:29;19.10;99.90
47600;DHT22;33323;52.124;6.018;2023-05-19T10:48:56;18.90;99.90
47600;DHT22;33323;52.124;6.018;2023-05-19T10:51:33;18.80;99.90
47600;DHT22;33323;52.124;6.018;2023-05-19T10:54:01;18.90;99.90
47600;DHT22;33323;52.124;6.018;2023-05-19T10:56:30;18.90;99.90
47600;DHT22;33323;52.124;6.018;2023-05-19T10:59:02;19.30;99.90
47600;DHT22;33323;52.124;6.018;2023-05-19T11:01:31;19.20;99.90
47600;DHT22;33323;52.124;6.018;2023-05-19T11:04:04;18.90;99.90
47600;DHT22;33323;52.124;6.018;2023-05-19T11:06:34;19.10;99.90
47600;DHT22;33323;52.124;6.018;2023-05-19T11:09:14;19.00;99.90
47600;DHT22;33323;52.124;6.018;2023-05-19T11:11:53;18.80;99.90
47600;DHT22;33323;52.124;6.018;2023-05-19T11:14:22;18.90;99.90
47600;DHT22;33323;52.124;6.018;2023-05-19T11:16:56;19.40;99.90
47600;DHT22;33323;52.124;6.018;2023-05-19T11:19:28;19.30;99.90
47600;DHT22;33323;52.124;6.018;2023-05-19T11:22:08;19.40;99.90
47600;DHT22;33323;52.124;6.018;2023-05-19T11:24:43;19.40;99.90
47600;DHT22;33323;52.124;6.018;2023-05-19T11:27:32;19.50;99.90
47600;DHT22;33323;52.124;6.018;2023-05-19T11:30:08;19.60;99.90
47600;DHT22;33323;52.124;6.018;2023-05-19T11:32:48;19.60;99.90
47600;DHT22;33323;52.124;6.018;2023-05-19T11:35:16;19.70;99.90
47600;DHT22;33323;52.124;6.018;2023-05-19T11:37:48;19.90;99.90
47600;DHT22;33323;52.124;6.018;2023-05-19T11:40:17;19.70;99.90
47600;DHT22;33323;52.124;6.018;2023-05-19T11:42:44;19.70;99.90
47600;DHT22;33323;52.124;6.018;2023-05-19T11:45:11;19.70;99.90
47600;DHT22;33323;52.124;6.018;2023-05-19T11:47:38;19.70;99.90
47600;DHT22;33323;52.124;6.018;2023-05-19T11:50:25;19.70;99.90
47600;DHT22;33323;52.124;6.018;2023-05-19T11:52:53;19.90;99.90
47600;DHT22;33323;52.124;6.018;2023-05-19T11:55:21;19.90;99.90
47600;DHT22;33323;52.124;6.018;2023-05-19T12:00:37;20.20;99.90
47600;DHT22;33323;52.124;6.018;2023-05-19T12:03:05;20.20;99.90
47600;DHT22;33323;52.124;6.018;2023-05-19T12:05:42;20.00;99.90
47600;DHT22;33323;52.124;6.018;2023-05-19T12:08:15;20.00;99.90
47600;DHT22;33323;52.124;6.018;2023-05-19T12:10:47;20.20;99.90
47600;DHT22;33323;52.124;6.018;2023-05-19T12:13:16;20.20;99.90
47600;DHT22;33323;52.124;6.018;2023-05-19T12:15:43;19.90;99.90
47600;DHT22;33323;52.124;6.018;2023-05-19T12:18:10;20.00;99.90
47600;DHT22;33323;52.124;6.018;2023-05-19T12:20:37;20.20;99.90
47600;DHT22;33323;52.124;6.018;2023-05-19T12:23:05;20.30;99.90
47600;DHT22;33323;52.124;6.018;2023-05-19T12:25:32;20.30;99.90
47600;DHT22;33323;52.124;6.018;2023-05-19T12:28:00;20.40;99.90
47600;DHT22;33323;52.124;6.018;2023-05-19T12:30:31;20.50;99.90
47600;DHT22;33323;52.124;6.018;2023-05-19T12:33:01;20.80;99.90
47600;DHT22;33323;52.124;6.018;2023-05-19T12:35:30;20.80;99.90
47600;DHT22;33323;52.124;6.018;2023-05-19T12:38:08;20.00;99.90
47600;DHT22;33323;52.124;6.018;2023-05-19T12:40:35;19.70;99.90
47600;DHT22;33323;52.124;6.018;2023-05-19T12:43:04;20.00;99.90
47600;DHT22;33323;52.124;6.018;2023-05-19T12:45:36;20.40;99.90
47600;DHT22;33323;52.124;6.018;2023-05-19T12:48:09;20.60;99.90
47600;DHT22;33323;52.124;6.018;2023-05-19T12:50:37;20.90;99.90
47600;DHT22;33323;52.124;6.018;2023-05-19T12:53:07;20.90;99.90
47600;DHT22;33323;52.124;6.018;2023-05-19T12:55:40;20.60;99.90
47600;DHT22;33323;52.124;6.018;2023-05-19T12:58:09;20.20;99.90
47600;DHT22;33323;52.124;6.018;2023-05-19T13:00:42;19.70;99.90
47600;DHT22;33323;52.124;6.018;2023-05-19T13:03:20;19.40;99.90
47600;DHT22;33323;52.124;6.018;2023-05-19T13:05:49;19.00;99.90
47600;DHT22;33323;52.124;6.018;2023-05-19T13:08:18;19.60;99.90
47600;DHT22;33323;52.124;6.018;2023-05-19T13:10:46;20.30;99.90
47600;DHT22;33323;52.124;6.018;2023-05-19T13:13:14;20.30;99.90
47600;DHT22;33323;52.124;6.018;2023-05-19T13:15:43;20.10;99.90
47600;DHT22;33323;52.124;6.018;2023-05-19T13:18:12;20.30;99.90
47600;DHT22;33323;52.124;6.018;2023-05-19T13:20:41;20.20;99.90
47600;DHT22;33323;52.124;6.018;2023-05-19T13:23:09;19.90;99.90
47600;DHT22;33323;52.124;6.018;2023-05-19T13:25:37;19.80;99.90
47600;DHT22;33323;52.124;6.018;2023-05-19T13:28:05;20.00;99.90
47600;DHT22;33323;52.124;6.018;2023-05-19T13:30:34;20.60;99.90
47600;DHT22;33323;52.124;6.018;2023-05-19T13:33:02;20.80;99.90
47600;DHT22;33323;52.124;6.018;2023-05-19T13:35:29;20.90;99.90
47600;DHT22;33323;52.124;6.018;2023-05-19T13:38:05;20.80;99.90
47600;DHT22;33323;52.124;6.018;2023-05-19T13:40:34;20.70;99.90
47600;DHT22;33323;52.124;6.018;2023-05-19T13:43:02;20.10;99.90
47600;DHT22;33323;52.124;6.018;2023-05-19T13:45:29;20.30;99.90
47600;DHT22;33323;52.124;6.018;2023-05-19T13:47:57;20.30;99.90
47600;DHT22;33323;52.124;6.018;2023-05-19T13:50:24;20.90;99.90
47600;DHT22;33323;52.124;6.018;2023-05-19T13:52:51;20.40;99.90
47600;DHT22;33323;52.124;6.018;2023-05-19T13:55:19;20.00;99.90
47600;DHT22;33323;52.124;6.018;2023-05-19T13:57:46;20.40;99.90
47600;DHT22;33323;52.124;6.018;2023-05-19T14:00:13;20.80;99.90
47600;DHT22;33323;52.124;6.018;2023-05-19T14:02:40;20.40;99.90
47600;DHT22;33323;52.124;6.018;2023-05-19T14:05:08;20.00;99.90
47600;DHT22;33323;52.124;6.018;2023-05-19T14:07:35;19.40;99.90
47600;DHT22;33323;52.124;6.018;2023-05-19T14:10:03;19.60;99.90
47600;DHT22;33323;52.124;6.018;2023-05-19T14:12:33;19.90;99.90
47600;DHT22;33323;52.124;6.018;2023-05-19T14:15:21;20.00;99.90
47600;DHT22;33323;52.124;6.018;2023-05-19T14:17:48;20.30;99.90
47600;DHT22;33323;52.124;6.018;2023-05-19T14:20:15;20.30;99.90
47600;DHT22;33323;52.124;6.018;2023-05-19T14:22:42;20.60;99.90
47600;DHT22;33323;52.124;6.018;2023-05-19T14:25:09;20.50;99.90
47600;DHT22;33323;52.124;6.018;2023-05-19T14:27:36;20.40;99.90
47600;DHT22;33323;52.124;6.018;2023-05-19T14:30:06;20.50;99.90
47600;DHT22;33323;52.124;6.018;2023-05-19T14:32:34;20.50;99.90
47600;DHT22;33323;52.124;6.018;2023-05-19T14:35:01;19.90;99.90
47600;DHT22;33323;52.124;6.018;2023-05-19T14:37:28;19.90;99.90
47600;DHT22;33323;52.124;6.018;2023-05-19T14:39:57;20.10;99.90
47600;DHT22;33323;52.124;6.018;2023-05-19T14:42:25;20.30;99.90
47600;DHT22;33323;52.124;6.018;2023-05-19T14:44:52;20.40;99.90
47600;DHT22;33323;52.124;6.018;2023-05-19T14:47:19;20.40;99.90
47600;DHT22;33323;52.124;6.018;2023-05-19T14:49:46;20.40;99.90
47600;DHT22;33323;52.124;6.018;2023-05-19T14:52:13;20.50;99.90
47600;DHT22;33323;52.124;6.018;2023-05-19T14:54:40;20.30;99.90
47600;DHT22;33323;52.124;6.018;2023-05-19T14:57:07;20.10;99.90
47600;DHT22;33323;52.124;6.018;2023-05-19T14:59:38;20.00;99.90
47600;DHT22;33323;52.124;6.018;2023-05-19T15:02:05;20.00;99.90
47600;DHT22;33323;52.124;6.018;2023-05-19T15:04:33;20.10;99.90
47600;DHT22;33323;52.124;6.018;2023-05-19T15:07:00;20.00;99.90
47600;DHT22;33323;52.124;6.018;2023-05-19T15:09:30;20.20;99.90
47600;DHT22;33323;52.124;6.018;2023-05-19T15:11:57;20.10;99.90
47600;DHT22;33323;52.124;6.018;2023-05-19T15:14:26;20.20;99.90
47600;DHT22;33323;52.124;6.018;2023-05-19T15:16:56;20.20;99.90
47600;DHT22;33323;52.124;6.018;2023-05-19T15:19:24;19.70;99.90
47600;DHT22;33323;52.124;6.018;2023-05-19T15:21:51;19.70;99.90
47600;DHT22;33323;52.124;6.018;2023-05-19T15:24:18;19.90;99.90
47600;DHT22;33323;52.124;6.018;2023-05-19T15:26:46;20.00;99.90
47600;DHT22;33323;52.124;6.018;2023-05-19T15:29:13;20.30;99.90
47600;DHT22;33323;52.124;6.018;2023-05-19T15:31:40;20.30;99.90
47600;DHT22;33323;52.124;6.018;2023-05-19T15:34:07;19.70;99.90
47600;DHT22;33323;52.124;6.018;2023-05-19T15:36:34;19.40;99.90
47600;DHT22;33323;52.124;6.018;2023-05-19T15:39:01;19.20;99.90
47600;DHT22;33323;52.124;6.018;2023-05-19T15:41:29;19.40;99.90
47600;DHT22;33323;52.124;6.018;2023-05-19T15:43:56;19.70;99.90
47600;DHT22;33323;52.124;6.018;2023-05-19T15:46:26;19.80;99.90
47600;DHT22;33323;52.124;6.018;2023-05-19T15:48:53;19.90;99.90
47600;DHT22;33323;52.124;6.018;2023-05-19T15:51:21;20.00;99.90
47600;DHT22;33323;52.124;6.018;2023-05-19T15:53:48;20.10;99.90
47600;DHT22;33323;52.124;6.018;2023-05-19T15:56:15;20.10;99.90
47600;DHT22;33323;52.124;6.018;2023-05-19T15:58:42;20.10;99.90
47600;DHT22;33323;52.124;6.018;2023-05-19T16:01:10;19.90;99.90
47600;DHT22;33323;52.124;6.018;2023-05-19T16:03:37;19.80;99.90
47600;DHT22;33323;52.124;6.018;2023-05-19T16:06:04;19.80;99.90
47600;DHT22;33323;52.124;6.018;2023-05-19T16:08:31;19.90;99.90
47600;DHT22;33323;52.124;6.018;2023-05-19T16:10:58;19.60;99.90